Terminal Aerodrome Forecast
Issued by NWS Wilmington, OH

Current Version | Previous Version | Graphics & Text | Print | Product List | Glossary On
Versions: 1 2 3 4 5 6 7 8 9 10 11 12 13 14 15 16 17 18 19 20 21 22 23 24 25 26 27 28
000
FTUS41 KILN 280100 AAA
TAFCVG
TAF AMD
KCVG 280107Z 2801/2906 23004KT 4SM -DZ BR OVC004
     FM280400 27005KT 2SM -RA BR OVC004
     FM280800 33008KT 4SM -RA BR OVC008
     FM281100 34008KT 5SM BR VCSH OVC008
     FM281400 34008KT P6SM OVC012
     FM281800 34008KT P6SM OVC022
     FM290000 36005KT P6SM BKN025=

USA.gov is the U.S. government's official web portal to all federal, state and local government web resources and services.